| time (UTC) | temp F | wind direction | speed MPH | gust MPH | rain 1hr in | rain 24hr in | rain mn in | humidity % | barometer mb |
| 20260504044551 | 57 | 182 | 6.0 | 13.0 | 0.00 | 0.00 | 0.00 | 56 | 1019.6 |
| 20260504043010 | 57 | 204 | 5.0 | 11.0 | 0.00 | 0.00 | 0.00 | 55 | 1019.9 |
| 20260504041538 | 57 | 192 | 6.0 | 11.0 | 0.00 | 0.00 | 0.00 | 55 | 1020.0 |
| 20260504040050 | 57 | 201 | 4.0 | 10.0 | 0.00 | 0.00 | 0.00 | 55 | 1020.2 |
| 20260504034512 | 57 | 207 | 0.0 | 8.0 | 0.00 | 0.00 | 0.00 | 55 | 1020.5 |
| 20260504033038 | 57 | 212 | 2.0 | 9.0 | 0.00 | 0.00 | 0.00 | 54 | 1020.4 |
| 20260504031540 | 57 | 219 | 1.0 | 7.0 | 0.00 | 0.00 | 0.00 | 53 | 1020.5 |
| 20260504030048 | 58 | 219 | 0.0 | 5.0 | 0.00 | 0.00 | 0.00 | 52 | 1020.6 |
| 20260504024502 | 58 | 219 | 0.0 | 5.0 | 0.00 | 0.00 | 0.00 | 51 | 1020.6 |
| 20260504023021 | 59 | 219 | 1.0 | 6.0 | 0.00 | 0.00 | 0.00 | 51 | 1020.6 |
| 20260504021531 | 59 | 219 | 0.0 | 6.0 | 0.00 | 0.00 | 0.00 | 50 | 1020.4 |
| 20260504020048 | 59 | 219 | 1.0 | 7.0 | 0.00 | 0.00 | 0.00 | 49 | 1020.3 |
| 20260504014503 | 60 | 220 | 1.0 | 6.0 | 0.00 | 0.00 | 0.00 | 49 | 1019.9 |
| 20260504013024 | 60 | 221 | 0.0 | 7.0 | 0.00 | 0.00 | 0.00 | 49 | 1019.7 |
| 20260504011531 | 61 | 226 | 0.0 | 0.0 | 0.00 | 0.00 | 0.00 | 47 | 1019.9 |
| 20260504010116 | 62 | 226 | 0.0 | 5.0 | 0.00 | 0.00 | 0.00 | 44 | 1020.1 |
| 20260504004518 | 63 | 226 | 0.0 | 0.0 | 0.00 | 0.00 | 0.00 | 42 | 1020.3 |
| 20260504003024 | 65 | 226 | 1.0 | 7.0 | 0.00 | 0.00 | 0.00 | 40 | 1019.9 |
| 20260504001545 | 66 | 230 | 0.0 | 9.0 | 0.00 | 0.00 | 0.00 | 38 | 1020.1 |
| 20260504000056 | 67 | 244 | 5.0 | 11.0 | 0.00 | 0.00 | 0.00 | 37 | 1020.3 |
| 20260503234502 | 68 | 259 | 5.0 | 10.0 | 0.00 | 0.00 | 0.00 | 36 | 1020.6 |
| 20260503233009 | 69 | 223 | 3.0 | 8.0 | 0.00 | 0.00 | 0.00 | 35 | 1020.8 |
| 20260503231526 | 69 | 253 | 0.0 | 7.0 | 0.00 | 0.00 | 0.00 | 35 | 1020.7 |
| 20260503230034 | 69 | 221 | 3.0 | 10.0 | 0.00 | 0.00 | 0.00 | 34 | 1020.8 |
| 20260503224551 | 69 | 228 | 7.0 | 12.0 | 0.00 | 0.00 | 0.00 | 35 | 1020.9 |
| 20260503223005 | 69 | 237 | 4.0 | 14.0 | 0.00 | 0.00 | 0.00 | 35 | 1021.2 |
| 20260503221508 | 70 | 224 | 4.0 | 12.0 | 0.00 | 0.00 | 0.00 | 33 | 1021.3 |
| 20260503220025 | 70 | 222 | 2.0 | 11.0 | 0.00 | 0.00 | 0.00 | 33 | 1021.5 |
| 20260503214534 | 71 | 265 | 0.0 | 13.0 | 0.00 | 0.00 | 0.00 | 31 | 1021.7 |
| 20260503213039 | 70 | 241 | 0.0 | 4.0 | 0.00 | 0.00 | 0.00 | 32 | 1021.9 |
| 20260503211544 | 70 | 257 | 3.0 | 12.0 | 0.00 | 0.00 | 0.00 | 32 | 1022.3 |
| 20260503204509 | 70 | 188 | 0.0 | 12.0 | 0.00 | 0.00 | 0.00 | 33 | 1022.7 |
| 20260503203018 | 70 | 315 | 0.0 | 12.0 | 0.00 | 0.00 | 0.00 | 32 | 1022.9 |
| 20260503201526 | 69 | 245 | 3.0 | 11.0 | 0.00 | 0.00 | 0.00 | 34 | 1023.2 |
| 20260503200026 | 70 | 248 | 2.0 | 11.0 | 0.00 | 0.00 | 0.00 | 35 | 1023.4 |
| 20260503194529 | 71 | 238 | 1.0 | 12.0 | 0.00 | 0.00 | 0.00 | 32 | 1023.8 |
| 20260503193032 | 71 | 209 | 3.0 | 11.0 | 0.00 | 0.00 | 0.00 | 31 | 1024.0 |
| 20260503191530 | 70 | 200 | 0.0 | 11.0 | 0.00 | 0.00 | 0.00 | 34 | 1024.2 |
| 20260503190058 | 68 | 216 | 3.0 | 10.0 | 0.00 | 0.00 | 0.00 | 35 | 1024.5 |
| 20260503184554 | 69 | 219 | 0.0 | 12.0 | 0.00 | 0.00 | 0.00 | 33 | 1024.7 |
| 20260503183105 | 68 | 209 | 0.0 | 10.0 | 0.00 | 0.00 | 0.00 | 33 | 1024.9 |
| 20260503181507 | 68 | 247 | 0.0 | 12.0 | 0.00 | 0.00 | 0.00 | 32 | 1025.0 |
| 20260503180015 | 68 | 200 | 1.0 | 11.0 | 0.00 | 0.00 | 0.00 | 32 | 1025.2 |
| 20260503174532 | 68 | 186 | 0.0 | 5.0 | 0.00 | 0.00 | 0.00 | 33 | 1025.2 |
| 20260503173133 | 68 | 179 | 4.0 | 10.0 | 0.00 | 0.00 | 0.00 | 33 | 1025.5 |
| 20260503171546 | 66 | 217 | 0.0 | 7.0 | 0.00 | 0.00 | 0.00 | 33 | 1025.8 |
| 20260503081528 | 44 | 296 | 0.0 | 0.0 | 0.00 | 0.00 | 0.00 | 85 | 1025.0 |
| 20260503071539 | 45 | 296 | 0.0 | 0.0 | 0.00 | 0.00 | 0.00 | 85 | 1024.7 |